createdAt,value
2018-03-16T00:01:43.344Z,15.62
2018-03-16T00:04:12.120Z,15.58
2018-03-16T00:06:40.660Z,15.22
2018-03-16T00:09:09.409Z,14.84
2018-03-16T00:11:38.764Z,15.06
2018-03-16T00:14:07.395Z,15.67
2018-03-16T00:16:36.843Z,15.88
2018-03-16T00:19:05.432Z,15.95
2018-03-16T00:21:34.074Z,16.07
2018-03-16T00:24:02.611Z,16.22
2018-03-16T00:26:31.208Z,16.09
2018-03-16T00:29:00.552Z,15.46
2018-03-16T00:31:29.266Z,15.72
2018-03-16T00:33:58.238Z,14.94
2018-03-16T00:36:26.907Z,14.47
2018-03-16T00:38:55.630Z,14.93
2018-03-16T00:41:24.416Z,14.78
2018-03-16T00:43:53.057Z,15.01
2018-03-16T00:46:22.511Z,15.05
2018-03-16T00:48:51.667Z,14.84
2018-03-16T00:51:20.208Z,14.85
2018-03-16T00:53:48.933Z,14.90
2018-03-16T00:56:17.577Z,14.59
2018-03-16T00:58:46.344Z,15.09
2018-03-16T01:01:15.033Z,15.22
2018-03-16T01:03:43.924Z,15.29
2018-03-16T01:06:12.621Z,15.21
2018-03-16T01:08:41.395Z,15.12
2018-03-16T01:11:11.159Z,15.33
2018-03-16T01:13:40.621Z,15.77
2018-03-16T01:16:09.295Z,14.42
2018-03-16T01:18:38.224Z,14.50
2018-03-16T01:21:07.537Z,15.13
2018-03-16T01:23:36.848Z,14.44
2018-03-16T01:26:05.840Z,14.24
2018-03-16T01:28:34.568Z,13.77
2018-03-16T01:31:03.253Z,14.30
2018-03-16T01:33:32.141Z,14.50
2018-03-16T01:36:00.741Z,14.51
2018-03-16T01:38:29.298Z,14.47
2018-03-16T01:40:58.247Z,15.08
2018-03-16T01:43:27.713Z,15.36
2018-03-16T01:45:56.257Z,14.70
2018-03-16T01:48:24.975Z,14.51
2018-03-16T01:50:53.519Z,15.44
2018-03-16T01:53:22.186Z,15.64
2018-03-16T01:55:51.804Z,15.54
2018-03-16T01:58:21.254Z,15.86
2018-03-16T02:00:49.940Z,16.00
2018-03-16T02:03:18.630Z,15.95
2018-03-16T02:05:47.276Z,16.05
2018-03-16T02:08:15.998Z,15.56
2018-03-16T02:10:44.937Z,15.30
2018-03-16T02:13:14.352Z,15.89
2018-03-16T02:15:43.800Z,15.66
2018-03-16T02:18:13.508Z,15.50
2018-03-16T02:20:42.192Z,16.12
2018-03-16T02:23:10.876Z,16.22
2018-03-16T02:25:39.870Z,15.85
2018-03-16T02:28:08.512Z,16.58
2018-03-16T02:30:37.241Z,16.34
2018-03-16T02:33:06.038Z,15.90
2018-03-16T02:35:34.722Z,15.58
2018-03-16T02:38:03.358Z,14.38
2018-03-16T02:40:33.827Z,15.34
2018-03-16T02:43:02.514Z,15.57
2018-03-16T02:45:31.162Z,14.67
2018-03-16T02:47:59.885Z,14.90
2018-03-16T02:50:28.571Z,15.45
2018-03-16T02:52:57.256Z,16.02
2018-03-16T02:55:26.240Z,16.15
2018-03-16T02:57:54.936Z,15.56
2018-03-16T03:00:23.620Z,14.56
2018-03-16T03:08:59.216Z,15.42
2018-03-16T03:11:27.893Z,14.79
2018-03-16T03:13:56.587Z,14.73
2018-03-16T03:16:25.580Z,15.33
2018-03-16T03:18:54.214Z,15.67
2018-03-16T03:21:23.665Z,15.44
2018-03-16T03:23:52.352Z,15.30
2018-03-16T03:26:20.972Z,15.25
2018-03-16T03:28:50.292Z,15.56
2018-03-16T03:31:19.231Z,16.09
2018-03-16T03:33:47.872Z,15.05
2018-03-16T03:36:16.539Z,14.52
2018-03-16T03:38:46.309Z,14.93
2018-03-16T03:41:14.954Z,15.79
2018-03-16T03:43:43.680Z,16.05
2018-03-16T03:46:12.365Z,15.70
2018-03-16T03:48:41.052Z,15.77
2018-03-16T03:51:09.675Z,15.89
2018-03-16T03:53:38.547Z,15.89
2018-03-16T03:56:08.000Z,16.01
2018-03-16T03:58:36.545Z,15.58
2018-03-16T04:01:05.371Z,15.46
2018-03-16T04:03:34.015Z,15.64
2018-03-16T04:06:02.742Z,15.51
2018-03-16T04:08:31.537Z,16.38
2018-03-16T04:11:00.223Z,16.94
2018-03-16T04:13:28.910Z,16.32
2018-03-16T04:15:58.499Z,16.08
2018-03-16T04:18:27.197Z,15.86
2018-03-16T04:20:55.887Z,15.86
2018-03-16T04:23:24.673Z,16.36
2018-03-16T04:25:53.232Z,16.87
2018-03-16T04:28:21.891Z,16.51
2018-03-16T04:30:51.388Z,15.82
2018-03-16T04:33:20.852Z,15.17
2018-03-16T04:35:49.471Z,15.35
2018-03-16T04:38:18.943Z,15.68
2018-03-16T04:40:47.503Z,16.43
2018-03-16T04:43:16.199Z,16.65
2018-03-16T04:45:45.401Z,16.42
2018-03-16T04:48:14.087Z,14.63
2018-03-16T04:50:42.731Z,14.84
2018-03-16T04:53:11.666Z,15.37
2018-03-16T04:55:40.292Z,15.64
2018-03-16T04:58:09.751Z,15.43
2018-03-16T05:00:38.450Z,15.73
2018-03-16T05:03:07.122Z,16.19
2018-03-16T05:05:35.809Z,16.33
2018-03-16T05:08:04.604Z,17.00
2018-03-16T05:10:33.291Z,17.32
2018-03-16T05:13:01.977Z,17.24
2018-03-16T05:15:31.376Z,17.20
2018-03-16T05:18:00.005Z,17.04
2018-03-16T05:20:29.324Z,17.43
2018-03-16T05:22:58.048Z,17.20
2018-03-16T05:25:26.733Z,15.98
2018-03-16T05:27:55.518Z,16.21
2018-03-16T05:30:24.469Z,17.18
2018-03-16T05:32:53.196Z,16.89
2018-03-16T05:35:21.829Z,16.38
2018-03-16T05:37:51.589Z,16.71
2018-03-16T05:40:20.237Z,17.21
2018-03-16T05:42:48.970Z,16.90
2018-03-16T05:45:18.677Z,17.29
2018-03-16T05:47:47.645Z,17.08
2018-03-16T05:50:16.356Z,16.91
2018-03-16T05:52:45.306Z,17.78
2018-03-16T05:55:14.034Z,17.95
2018-03-16T05:57:42.719Z,17.82
2018-03-16T06:00:11.509Z,18.28
2018-03-16T06:02:40.190Z,18.06
2018-03-16T06:05:08.824Z,18.34
2018-03-16T06:07:38.286Z,17.89
2018-03-16T06:10:06.952Z,18.11
2018-03-16T06:12:35.657Z,18.13
2018-03-16T06:15:04.345Z,18.52
2018-03-16T06:17:33.028Z,18.20
2018-03-16T06:20:01.715Z,17.91
2018-03-16T06:22:30.646Z,18.66
2018-03-16T06:24:59.393Z,18.68
2018-03-16T06:27:28.029Z,17.98
2018-03-16T06:29:57.786Z,18.79
2018-03-16T06:32:26.471Z,19.02
2018-03-16T06:34:55.137Z,18.46
2018-03-16T06:37:23.940Z,17.79
2018-03-16T06:39:52.572Z,17.48
2018-03-16T06:42:21.313Z,17.98
2018-03-16T06:44:50.259Z,17.94
2018-03-16T06:47:19.714Z,17.39
2018-03-16T06:49:48.405Z,17.53
2018-03-16T06:52:18.415Z,17.67
2018-03-16T06:54:47.056Z,18.30
2018-03-16T06:57:15.787Z,17.78
2018-03-16T06:59:44.517Z,17.52
2018-03-16T07:02:13.256Z,17.49
2018-03-16T07:04:41.943Z,18.42
2018-03-16T07:07:10.737Z,17.94
2018-03-16T07:09:39.621Z,18.33
2018-03-16T07:12:08.203Z,17.90
2018-03-16T07:14:36.892Z,17.42
2018-03-16T07:17:05.617Z,18.43
2018-03-16T07:19:35.087Z,18.10
2018-03-16T07:22:03.873Z,17.94
2018-03-16T07:24:32.559Z,17.77
2018-03-16T07:27:01.245Z,18.23
2018-03-16T07:29:30.237Z,17.56
2018-03-16T07:31:58.876Z,17.35
2018-03-16T07:34:27.609Z,18.08
2018-03-16T07:36:56.394Z,17.87
2018-03-16T07:39:25.079Z,18.51
2018-03-16T07:41:53.668Z,18.44
2018-03-16T07:44:22.758Z,18.16
2018-03-16T07:46:51.408Z,17.76
2018-03-16T07:49:20.129Z,18.43
2018-03-16T07:51:49.122Z,17.89
2018-03-16T07:54:17.762Z,18.11
2018-03-16T07:56:46.494Z,18.08
2018-03-16T07:59:15.451Z,19.12
2018-03-16T08:01:44.172Z,17.90
2018-03-16T08:04:12.809Z,17.63
2018-03-16T08:06:41.546Z,18.57
2018-03-16T08:09:10.438Z,18.64
2018-03-16T08:11:39.027Z,19.06
2018-03-16T08:14:07.811Z,18.00
2018-03-16T08:16:36.496Z,18.92
2018-03-16T08:19:05.143Z,18.56
2018-03-16T08:21:34.137Z,19.62
2018-03-16T08:24:02.860Z,19.09
2018-03-16T08:26:31.548Z,19.31
2018-03-16T08:29:00.330Z,19.68
2018-03-16T08:31:29.017Z,20.90
2018-03-16T08:33:57.707Z,20.71
2018-03-16T08:36:26.439Z,20.71
2018-03-16T08:38:55.797Z,20.55
2018-03-16T08:41:24.427Z,20.57
2018-03-16T08:43:54.148Z,20.23
2018-03-16T08:46:22.876Z,21.29
2018-03-16T08:48:51.562Z,20.96
2018-03-16T08:51:20.303Z,20.48
2018-03-16T08:53:49.032Z,21.59
2018-03-16T08:56:17.623Z,21.87
2018-03-16T08:58:46.477Z,20.99
2018-03-16T09:01:15.198Z,21.25
2018-03-16T09:03:43.941Z,22.66
2018-03-16T09:06:12.938Z,22.65
2018-03-16T09:08:41.497Z,22.30
2018-03-16T09:11:10.962Z,21.63
2018-03-16T09:13:39.714Z,21.73
2018-03-16T09:16:08.383Z,21.77
2018-03-16T09:18:37.118Z,21.87
2018-03-16T09:21:06.068Z,21.76
2018-03-16T09:23:34.798Z,21.58
2018-03-16T09:26:03.594Z,21.12
2018-03-16T09:28:32.518Z,21.49
2018-03-16T09:31:01.985Z,21.31
2018-03-16T09:33:30.658Z,21.27
2018-03-16T09:35:59.589Z,20.55
2018-03-16T09:38:28.350Z,22.07
2018-03-16T09:40:57.809Z,22.31
2018-03-16T09:43:27.314Z,22.37
2018-03-16T09:45:56.009Z,23.97
2018-03-16T09:48:24.597Z,24.06
2018-03-16T09:50:53.456Z,23.51
2018-03-16T09:53:29.752Z,23.58
2018-03-16T09:55:58.452Z,22.00
2018-03-16T09:58:27.120Z,23.08
2018-03-16T10:00:55.684Z,22.63
2018-03-16T10:03:24.305Z,22.25
2018-03-16T10:05:52.868Z,22.21
2018-03-16T10:08:21.421Z,22.50
2018-03-16T10:10:50.038Z,22.57
2018-03-16T10:13:19.500Z,22.29
2018-03-16T10:15:48.196Z,22.46
2018-03-16T10:18:17.280Z,23.70
2018-03-16T10:20:46.014Z,23.81
2018-03-16T10:23:14.573Z,23.65
2018-03-16T10:25:43.189Z,22.31
2018-03-16T10:28:11.934Z,22.95
2018-03-16T10:30:40.647Z,21.68
2018-03-16T10:33:09.334Z,22.08
2018-03-16T10:35:37.986Z,21.35
2018-03-16T10:38:07.074Z,20.69
2018-03-16T10:40:36.770Z,21.11
2018-03-16T10:43:06.226Z,20.89
2018-03-16T10:45:34.882Z,20.35
2018-03-16T10:48:04.465Z,22.36
2018-03-16T10:50:33.144Z,21.18
2018-03-16T10:53:02.849Z,21.85
2018-03-16T10:55:31.464Z,22.88
2018-03-16T10:58:00.789Z,24.08
2018-03-16T11:00:34.921Z,23.46
2018-03-16T11:03:08.506Z,21.64
2018-03-16T11:05:42.529Z,22.81
2018-03-16T11:08:11.108Z,22.30
2018-03-16T11:10:39.702Z,22.65
2018-03-16T11:13:08.426Z,23.62
2018-03-16T11:15:37.886Z,24.02
2018-03-16T11:18:06.458Z,23.96
2018-03-16T11:20:35.062Z,22.51
2018-03-16T11:23:03.634Z,22.26
2018-03-16T11:25:32.188Z,22.99
2018-03-16T11:28:00.999Z,22.92
2018-03-16T11:30:29.586Z,22.00
2018-03-16T11:32:58.390Z,23.17
2018-03-16T11:35:27.165Z,22.49
2018-03-16T11:37:55.725Z,22.09
2018-03-16T11:40:24.288Z,21.85
2018-03-16T11:42:53.032Z,22.31
2018-03-16T11:45:23.291Z,22.85
2018-03-16T11:47:51.853Z,23.91
2018-03-16T11:50:20.473Z,23.95
2018-03-16T11:52:49.038Z,23.62
2018-03-16T11:55:18.365Z,22.02
2018-03-16T11:57:47.096Z,21.96
2018-03-16T12:00:15.663Z,23.45
2018-03-16T12:02:44.227Z,23.76
2018-03-16T12:05:13.657Z,23.87
2018-03-16T12:07:43.020Z,22.58
2018-03-16T12:10:11.577Z,22.66
2018-03-16T12:12:41.289Z,23.15
2018-03-16T12:15:10.614Z,23.41
2018-03-16T12:17:39.180Z,23.09
2018-03-16T12:20:07.789Z,22.88
2018-03-16T12:22:36.345Z,23.05
2018-03-16T12:25:05.669Z,23.34
2018-03-16T12:27:34.606Z,22.99
2018-03-16T12:30:03.193Z,24.00
2018-03-16T12:32:31.767Z,23.71
2018-03-16T12:35:00.535Z,24.46
2018-03-16T12:37:29.092Z,24.14
2018-03-16T12:39:57.661Z,24.58
2018-03-16T12:42:26.270Z,24.17
2018-03-16T12:44:54.824Z,23.83
2018-03-16T12:47:24.616Z,24.12
2018-03-16T12:49:53.994Z,23.85
2018-03-16T12:52:22.557Z,23.61
2018-03-16T12:54:51.120Z,23.95
2018-03-16T12:57:19.739Z,24.18
2018-03-16T12:59:48.288Z,23.18
2018-03-16T13:02:16.843Z,22.59
2018-03-16T13:04:45.492Z,22.65
2018-03-16T13:07:14.040Z,24.37
2018-03-16T13:09:42.592Z,24.48
2018-03-16T13:12:12.153Z,24.26
2018-03-16T13:14:40.714Z,23.51
2018-03-16T13:17:09.404Z,24.12
2018-03-16T13:19:38.040Z,23.80
2018-03-16T13:22:07.704Z,23.65
2018-03-16T13:24:36.261Z,23.79
2018-03-16T13:27:05.059Z,23.73
2018-03-16T13:29:33.613Z,23.34
2018-03-16T13:32:02.937Z,23.05
2018-03-16T13:34:31.761Z,23.06
2018-03-16T13:37:00.317Z,23.73
2018-03-16T13:39:28.868Z,23.44
2018-03-16T13:41:58.430Z,24.18
2018-03-16T13:44:26.987Z,24.70
2018-03-16T13:46:55.544Z,24.15
2018-03-16T13:49:25.310Z,24.08
2018-03-16T13:51:53.869Z,23.61
2018-03-16T13:54:22.429Z,23.15
2018-03-16T13:56:51.038Z,23.40
2018-03-16T13:59:19.596Z,22.54
2018-03-16T14:01:48.923Z,22.33
2018-03-16T14:04:17.525Z,23.07
2018-03-16T14:06:46.118Z,23.44
2018-03-16T14:09:15.093Z,21.99
2018-03-16T14:11:43.889Z,22.09
2018-03-16T14:14:13.252Z,22.29
2018-03-16T14:16:41.809Z,22.48
2018-03-16T14:19:11.374Z,22.68
2018-03-16T14:21:39.944Z,22.80
2018-03-16T14:24:08.544Z,23.11
2018-03-16T14:26:37.148Z,23.03
2018-03-16T14:29:06.161Z,22.71
2018-03-16T14:31:35.482Z,22.68
2018-03-16T14:34:04.216Z,23.09
2018-03-16T14:36:32.777Z,22.76
2018-03-16T14:39:01.325Z,22.39
2018-03-16T14:41:30.765Z,22.75
2018-03-16T14:43:59.318Z,22.66
2018-03-16T14:46:27.876Z,22.60
2018-03-16T14:48:57.563Z,22.87
2018-03-16T14:51:26.189Z,23.34
2018-03-16T14:53:55.509Z,23.43
2018-03-16T14:56:24.744Z,23.24
2018-03-16T14:58:53.352Z,23.14
2018-03-16T15:01:22.298Z,22.58
2018-03-16T15:03:51.308Z,23.05
2018-03-16T15:06:19.876Z,22.96
2018-03-16T15:08:48.435Z,22.78
2018-03-16T15:11:17.185Z,22.88
2018-03-16T15:13:45.745Z,23.20
2018-03-16T15:16:15.069Z,23.41
2018-03-16T15:18:43.690Z,22.67
2018-03-16T15:21:12.258Z,22.72
2018-03-16T15:23:41.588Z,23.12
2018-03-16T15:26:10.197Z,22.87
2018-03-16T15:28:38.741Z,22.86
2018-03-16T15:31:07.308Z,22.70
2018-03-16T15:33:36.359Z,21.38
2018-03-16T15:36:04.927Z,22.13
2018-03-16T15:38:33.483Z,22.62
2018-03-16T15:41:02.645Z,22.82
2018-03-16T15:43:32.292Z,23.18
2018-03-16T15:46:00.865Z,23.28
2018-03-16T15:48:29.698Z,23.33
2018-03-16T15:50:58.284Z,22.95
2018-03-16T15:53:26.844Z,21.90
2018-03-16T15:55:55.865Z,21.71
2018-03-16T15:58:24.420Z,22.00
2018-03-16T16:00:53.048Z,22.34
2018-03-16T16:03:21.658Z,22.29
2018-03-16T16:05:50.990Z,22.55
2018-03-16T16:08:19.561Z,22.19
2018-03-16T16:10:48.193Z,21.29
2018-03-16T16:13:16.770Z,21.21
2018-03-16T16:15:45.346Z,21.10
2018-03-16T16:18:14.032Z,21.48
2018-03-16T16:20:42.597Z,21.93
2018-03-16T16:23:11.300Z,21.74
2018-03-16T16:25:40.199Z,21.20
2018-03-16T16:28:09.560Z,21.01
2018-03-16T16:30:38.226Z,20.97
2018-03-16T16:33:06.963Z,20.98
2018-03-16T16:35:35.659Z,20.97
2018-03-16T16:38:04.237Z,20.49
2018-03-16T16:40:33.230Z,20.50
2018-03-16T16:43:01.967Z,20.33
2018-03-16T16:45:30.702Z,20.48
2018-03-16T16:48:00.278Z,20.32
2018-03-16T16:50:29.000Z,20.18
2018-03-16T16:52:57.736Z,19.99
2018-03-16T16:55:27.801Z,19.68
2018-03-16T16:57:56.501Z,19.60
2018-03-16T17:00:25.179Z,19.69
2018-03-16T17:02:55.037Z,19.76
2018-03-16T17:05:23.652Z,19.12
2018-03-16T17:07:54.548Z,19.36
2018-03-16T17:10:24.014Z,19.71
2018-03-16T17:12:52.694Z,19.20
2018-03-16T17:15:21.379Z,19.08
2018-03-16T17:17:50.118Z,19.37
2018-03-16T17:20:19.564Z,19.14
2018-03-16T17:22:48.667Z,18.57
2018-03-16T17:25:17.658Z,18.65
2018-03-16T17:27:46.248Z,19.03
2018-03-16T17:30:14.932Z,18.94
2018-03-16T17:32:44.100Z,18.65
2018-03-16T17:35:12.823Z,18.82
2018-03-16T17:37:41.436Z,18.86
2018-03-16T17:40:11.211Z,19.01
2018-03-16T17:42:39.898Z,19.02
2018-03-16T17:45:08.545Z,18.78
2018-03-16T17:47:37.313Z,18.95
2018-03-16T17:50:06.727Z,18.93
2018-03-16T17:52:35.431Z,18.81
2018-03-16T17:55:04.166Z,18.81
2018-03-16T17:57:32.720Z,18.01
2018-03-16T18:00:01.428Z,17.82
2018-03-16T18:02:31.194Z,17.98
2018-03-16T18:04:59.788Z,18.15
2018-03-16T18:07:28.531Z,18.12
2018-03-16T18:09:57.252Z,18.18
2018-03-16T18:12:25.937Z,18.17
2018-03-16T18:14:54.623Z,18.27
2018-03-16T18:17:23.804Z,18.17
2018-03-16T18:19:52.511Z,18.12
2018-03-16T18:22:21.565Z,18.53
2018-03-16T18:24:50.288Z,18.47
2018-03-16T18:27:18.952Z,18.27
2018-03-16T18:29:48.394Z,18.11
2018-03-16T18:32:17.162Z,18.15
2018-03-16T18:34:46.680Z,17.81
2018-03-16T18:37:15.323Z,17.48
2018-03-16T18:39:44.141Z,17.62
2018-03-16T18:42:12.802Z,18.01
2018-03-16T18:44:41.453Z,17.90
2018-03-16T18:47:10.396Z,17.34
2018-03-16T18:49:39.113Z,18.04
2018-03-16T18:52:07.700Z,18.04
2018-03-16T18:54:37.424Z,17.39
2018-03-16T18:57:06.159Z,16.89
2018-03-16T18:59:34.810Z,16.82
2018-03-16T19:02:03.625Z,17.28
2018-03-16T19:04:32.326Z,17.27
2018-03-16T19:07:00.961Z,17.69
2018-03-16T19:09:29.757Z,18.30
2018-03-16T19:11:58.526Z,18.30
2018-03-16T19:14:28.092Z,17.51
2018-03-16T19:16:57.895Z,17.37
2018-03-16T19:19:26.446Z,17.42
2018-03-16T19:21:55.169Z,17.32
2018-03-16T19:24:23.953Z,17.53
2018-03-16T19:26:52.639Z,17.02
2018-03-16T19:29:21.225Z,17.04
2018-03-16T19:31:51.001Z,17.26
2018-03-16T19:34:19.709Z,17.13
2018-03-16T19:36:49.161Z,17.45
2018-03-16T19:39:17.946Z,17.55
2018-03-16T19:41:46.709Z,17.38
2018-03-16T19:44:15.289Z,17.52
2018-03-16T19:46:43.982Z,16.91
2018-03-16T19:49:12.712Z,16.84
2018-03-16T19:51:41.289Z,16.62
2018-03-16T19:54:09.982Z,16.65
2018-03-16T19:56:39.447Z,16.98
2018-03-16T19:59:08.192Z,16.59
2018-03-16T20:01:36.957Z,17.06
2018-03-16T20:04:06.522Z,17.16
2018-03-16T20:06:35.218Z,17.40
2018-03-16T20:09:04.310Z,17.02
2018-03-16T20:11:32.888Z,17.15
2018-03-16T20:14:01.478Z,16.87
2018-03-16T20:16:30.085Z,16.94
2018-03-16T20:18:59.511Z,16.74
2018-03-16T20:21:28.253Z,16.64
2018-03-16T20:23:57.198Z,16.40
2018-03-16T20:26:25.825Z,16.83
2018-03-16T20:28:54.511Z,16.95
2018-03-16T20:31:23.202Z,16.77
2018-03-16T20:33:51.981Z,16.97
2018-03-16T20:36:20.708Z,16.72
2018-03-16T20:38:50.375Z,16.65
2018-03-16T20:41:19.069Z,16.61
2018-03-16T20:43:47.645Z,16.31
2018-03-16T20:46:16.847Z,16.19
2018-03-16T20:48:45.532Z,16.35
2018-03-16T20:51:16.950Z,16.52
2018-03-16T20:53:46.033Z,16.37
2018-03-16T20:56:14.682Z,16.48
2018-03-16T20:58:43.415Z,16.51
2018-03-16T21:01:12.406Z,16.43
2018-03-16T21:03:41.034Z,16.17
2018-03-16T21:06:10.495Z,16.09
2018-03-16T21:08:39.145Z,16.29
2018-03-16T21:11:07.831Z,16.51
2018-03-16T21:13:36.420Z,16.97
2018-03-16T21:16:05.102Z,16.13
2018-03-16T21:18:33.790Z,16.23
2018-03-16T21:21:02.559Z,16.47
2018-03-16T21:23:32.128Z,15.93
2018-03-16T21:26:00.948Z,16.59
2018-03-16T21:28:30.362Z,16.83
2018-03-16T21:31:00.029Z,14.93
2018-03-16T21:33:28.594Z,15.76
2018-03-16T21:35:57.193Z,14.72
2018-03-16T21:38:26.766Z,14.67
2018-03-16T21:40:55.453Z,15.50
2018-03-16T21:43:24.917Z,15.49
2018-03-16T21:45:53.866Z,15.60
2018-03-16T21:48:22.595Z,15.10
2018-03-16T21:50:51.252Z,15.24
2018-03-16T21:53:19.991Z,15.53
2018-03-16T21:55:48.661Z,15.55
2018-03-16T21:58:18.778Z,15.12
2018-03-16T22:00:47.792Z,15.36
2018-03-16T22:03:17.262Z,15.08
2018-03-16T22:05:45.964Z,14.91
2018-03-16T22:08:14.642Z,15.09
2018-03-16T22:10:43.334Z,15.19
2018-03-16T22:13:12.020Z,14.93
2018-03-16T22:15:40.755Z,15.66
2018-03-16T22:18:09.491Z,14.80
2018-03-16T22:20:38.116Z,12.79
2018-03-16T22:23:07.783Z,14.16
2018-03-16T22:25:36.471Z,14.25
2018-03-16T22:28:05.051Z,14.67
2018-03-16T22:30:33.940Z,14.61
2018-03-16T22:33:02.625Z,15.21
2018-03-16T22:35:31.275Z,15.27
2018-03-16T22:38:00.088Z,15.10
2018-03-16T22:40:28.781Z,15.21
2018-03-16T22:42:57.479Z,15.42
2018-03-16T22:45:26.196Z,15.57
2018-03-16T22:47:55.662Z,15.10
2018-03-16T22:50:24.306Z,15.81
2018-03-16T22:52:54.163Z,15.40
2018-03-16T22:55:22.750Z,15.08
2018-03-16T22:57:51.327Z,15.50
2018-03-16T23:00:20.319Z,14.55
2018-03-16T23:02:49.004Z,14.63
2018-03-16T23:05:17.591Z,15.54
2018-03-16T23:07:46.557Z,15.15
2018-03-16T23:10:15.271Z,15.63
2018-03-16T23:12:44.057Z,15.33
2018-03-16T23:15:12.782Z,15.31
2018-03-16T23:17:42.250Z,15.05
2018-03-16T23:20:10.825Z,15.41
2018-03-16T23:22:39.720Z,14.96
2018-03-16T23:25:08.269Z,14.77
2018-03-16T23:27:36.949Z,15.34
2018-03-16T23:30:05.744Z,15.62
2018-03-16T23:32:34.464Z,16.00
2018-03-16T23:35:03.104Z,15.70
2018-03-16T23:37:31.801Z,15.66
2018-03-16T23:40:00.422Z,15.47
2018-03-16T23:42:29.108Z,15.27
2018-03-16T23:44:57.851Z,15.73
2018-03-16T23:47:26.577Z,15.65
2018-03-16T23:49:55.212Z,15.43
2018-03-16T23:52:24.204Z,15.15
2018-03-16T23:54:52.844Z,15.22
2018-03-16T23:57:21.490Z,14.38
2018-03-16T23:59:50.583Z,12.36
